Time;durP1;ratioP1;P1;durP2;ratioP2;P2;SDS_P1;SDS_P2;PMS_P1;PMS_P2;Temp;Humidity;BMP_temperature;BMP_pressure;BME280_temperature;BME280_humidity;BME280_pressure;Samples;Min_cycle;Max_cycle;Signal;HPM_P1;HPM_P2
2023/08/06 00:00:49;;;;;;;6.80;5.07;;;;;;;16.01;100.00;99506.84;5014362;28;20110;-74
2023/08/06 00:03:19;;;;;;;5.70;4.90;;;;;;;16.04;100.00;99507.47;5045381;28;20110;-74
2023/08/06 00:05:47;;;;;;;5.90;4.93;;;;;;;16.00;100.00;99502.50;5040569;28;20464;-73
2023/08/06 00:08:15;;;;;;;7.78;4.75;;;;;;;16.03;100.00;99502.25;5046581;28;20041;-74
2023/08/06 00:10:48;;;;;;;7.63;5.07;;;;;;;16.04;100.00;99496.78;5049057;28;20421;-75
2023/08/06 00:13:19;;;;;;;9.38;5.63;;;;;;;15.99;100.00;99492.78;5047553;28;20050;-75
2023/08/06 00:15:48;;;;;;;8.80;5.43;;;;;;;15.95;100.00;99494.84;5040383;28;20139;-75
2023/08/06 00:18:15;;;;;;;6.95;4.28;;;;;;;16.01;100.00;99497.03;5045610;28;20132;-75
2023/08/06 00:20:44;;;;;;;6.03;5.10;;;;;;;16.00;100.00;99494.47;5049580;28;20056;-75
2023/08/06 00:23:12;;;;;;;6.18;4.80;;;;;;;15.98;100.00;99491.09;5036171;28;20094;-75
2023/08/06 00:25:40;;;;;;;6.13;5.13;;;;;;;16.01;100.00;99488.16;5040052;28;20144;-74
2023/08/06 00:28:09;;;;;;;8.13;4.90;;;;;;;16.08;100.00;99479.50;5043824;28;20060;-75
2023/08/06 00:30:39;;;;;;;4.30;3.90;;;;;;;16.17;100.00;99477.88;5047795;28;20071;-74
2023/08/06 00:33:07;;;;;;;7.68;4.97;;;;;;;16.15;100.00;99482.50;5039568;28;20053;-74
2023/08/06 00:35:35;;;;;;;8.63;4.60;;;;;;;16.14;100.00;99480.81;5038602;28;20067;-74
2023/08/06 00:38:03;;;;;;;5.93;4.60;;;;;;;16.12;100.00;99470.25;5046096;28;20056;-75
2023/08/06 00:40:31;;;;;;;8.40;4.88;;;;;;;16.05;100.00;99463.75;5052839;28;20595;-74
2023/08/06 00:42:59;;;;;;;5.50;4.93;;;;;;;16.13;100.00;99465.75;5047844;28;20048;-74
2023/08/06 00:45:29;;;;;;;7.18;4.72;;;;;;;16.06;100.00;99461.91;5024238;28;20045;-75
2023/08/06 00:47:59;;;;;;;6.22;4.80;;;;;;;16.04;100.00;99455.88;5049461;28;20048;-74
2023/08/06 00:50:28;;;;;;;8.32;4.55;;;;;;;16.05;100.00;99469.09;5046340;28;20048;-75
2023/08/06 00:52:56;;;;;;;5.63;5.03;;;;;;;15.99;100.00;99442.03;5047511;28;20053;-74
2023/08/06 00:55:25;;;;;;;6.90;5.00;;;;;;;15.96;100.00;99444.97;5058791;28;20091;-76
2023/08/06 00:57:55;;;;;;;5.07;4.50;;;;;;;15.85;100.00;99435.19;5056030;28;20048;-76
2023/08/06 01:00:25;;;;;;;8.88;5.20;;;;;;;15.92;100.00;99441.69;5045703;28;20045;-75
2023/08/06 01:02:55;;;;;;;5.93;4.53;;;;;;;15.94;100.00;99428.22;5032579;28;20044;-75
2023/08/06 01:05:25;;;;;;;7.13;4.70;;;;;;;16.07;100.00;99434.22;5029100;28;20399;-74
2023/08/06 01:08:13;;;;;;;6.38;4.38;;;;;;;16.10;100.00;99429.47;5040914;28;20069;-74
2023/08/06 01:10:56;;;;;;;5.40;4.88;;;;;;;16.11;100.00;99428.50;5047717;28;20582;-74
2023/08/06 01:13:33;;;;;;;6.18;4.60;;;;;;;16.08;100.00;99430.56;5066882;28;20107;-73
2023/08/06 01:16:02;;;;;;;7.22;4.90;;;;;;;16.07;100.00;99427.06;5038080;28;20068;-74
2023/08/06 01:18:32;;;;;;;9.30;4.97;;;;;;;16.06;100.00;99417.34;5029699;28;20041;-74
2023/08/06 01:21:03;;;;;;;8.50;4.85;;;;;;;16.09;100.00;99425.09;5041683;28;20112;-75
2023/08/06 01:23:33;;;;;;;6.07;4.90;;;;;;;16.12;100.00;99419.50;5043764;28;20045;-75
2023/08/06 01:26:14;;;;;;;8.40;4.95;;;;;;;16.14;100.00;99414.03;5039110;28;20127;-74
2023/08/06 01:28:48;;;;;;;7.25;5.00;;;;;;;16.15;100.00;99413.06;5049419;28;20035;-75
2023/08/06 01:31:25;;;;;;;6.40;4.15;;;;;;;16.13;100.00;99410.53;5048952;28;20071;-74
2023/08/06 01:33:57;;;;;;;6.60;4.88;;;;;;;16.13;100.00;99401.66;5052819;28;20044;-74
2023/08/06 01:36:27;;;;;;;5.25;4.03;;;;;;;16.12;100.00;99408.81;5043610;28;20049;-73
2023/08/06 01:38:58;;;;;;;5.85;4.43;;;;;;;16.10;100.00;99388.56;5052102;28;20057;-74
2023/08/06 01:41:26;;;;;;;6.57;4.13;;;;;;;16.13;100.00;99404.34;5046306;28;20049;-75
2023/08/06 01:43:53;;;;;;;8.00;4.10;;;;;;;16.10;100.00;99389.41;5047326;28;20049;-75
2023/08/06 01:46:21;;;;;;;5.25;4.10;;;;;;;16.12;100.00;99398.16;5042823;28;20564;-75
2023/08/06 01:48:51;;;;;;;6.38;4.35;;;;;;;16.12;100.00;99397.28;5044381;28;20056;-75
2023/08/06 01:51:19;;;;;;;5.20;4.00;;;;;;;16.23;100.00;99397.22;5050547;28;20048;-76
2023/08/06 01:53:51;;;;;;;6.07;4.20;;;;;;;16.20;100.00;99396.66;5026812;28;20049;-75
2023/08/06 01:56:19;;;;;;;5.30;3.97;;;;;;;16.17;100.00;99395.09;5039821;28;20049;-76
2023/08/06 01:58:49;;;;;;;5.22;4.30;;;;;;;16.17;100.00;99391.56;5046503;28;20440;-76
2023/08/06 02:01:17;;;;;;;5.50;3.85;;;;;;;16.21;100.00;99388.50;5046244;28;20052;-75
2023/08/06 02:03:45;;;;;;;5.03;3.72;;;;;;;16.20;100.00;99381.47;5055512;28;20040;-75
2023/08/06 02:06:13;;;;;;;5.47;3.60;;;;;;;16.18;100.00;99382.59;5027088;28;20409;-76
2023/08/06 02:08:41;;;;;;;4.85;3.78;;;;;;;16.13;100.00;99374.94;5049655;28;20041;-76
2023/08/06 02:11:12;;;;;;;7.20;4.43;;;;;;;16.10;100.00;99364.53;5050096;28;20126;-76
2023/08/06 02:13:40;;;;;;;4.65;3.20;;;;;;;16.22;100.00;99376.81;5044744;28;20045;-76
2023/08/06 02:16:09;;;;;;;4.15;3.40;;;;;;;16.14;100.00;99376.66;5033925;28;20053;-76
2023/08/06 02:18:40;;;;;;;5.70;3.63;;;;;;;16.09;100.00;99369.03;5053387;28;20102;-75
2023/08/06 02:21:10;;;;;;;7.10;3.70;;;;;;;16.18;100.00;99370.06;5041253;28;20119;-76
2023/08/06 02:23:38;;;;;;;6.00;3.85;;;;;;;16.14;100.00;99364.13;5046054;28;20049;-75
2023/08/06 02:26:09;;;;;;;4.25;3.25;;;;;;;16.15;100.00;99359.66;5043314;28;20044;-76
2023/08/06 02:28:38;;;;;;;4.22;3.83;;;;;;;16.16;100.00;99358.66;5035395;28;20425;-76
2023/08/06 02:31:06;;;;;;;4.60;3.50;;;;;;;16.09;100.00;99353.00;5037569;28;20053;-76
2023/08/06 02:33:37;;;;;;;8.90;3.55;;;;;;;16.07;100.00;99344.28;5049061;28;20410;-76
2023/08/06 02:36:07;;;;;;;4.68;3.78;;;;;;;16.08;100.00;99351.31;5061277;28;20041;-75
2023/08/06 02:38:36;;;;;;;3.95;3.40;;;;;;;16.06;100.00;99339.06;5047807;28;20052;-76
2023/08/06 02:41:05;;;;;;;5.82;3.22;;;;;;;16.03;100.00;99334.00;5054363;28;20052;-75
2023/08/06 02:43:35;;;;;;;7.55;3.55;;;;;;;16.01;100.00;99328.78;5045479;28;20048;-75
2023/08/06 02:46:03;;;;;;;4.38;3.45;;;;;;;16.05;100.00;99329.38;5028152;28;20152;-76
2023/08/06 02:48:32;;;;;;;4.65;3.28;;;;;;;16.05;100.00;99319.53;5066525;28;20040;-76
2023/08/06 02:51:00;;;;;;;8.88;3.58;;;;;;;16.04;100.00;99333.03;5051434;28;20051;-76
2023/08/06 02:53:31;;;;;;;6.70;3.78;;;;;;;16.03;100.00;99331.34;5055443;28;20072;-75
2023/08/06 02:56:02;;;;;;;7.30;3.17;;;;;;;15.99;100.00;99332.56;5048467;28;20573;-76
2023/08/06 02:58:43;;;;;;;5.30;3.67;;;;;;;15.98;100.00;99336.22;5034185;28;20045;-76
2023/08/06 03:01:23;;;;;;;3.70;3.20;;;;;;;15.92;100.00;99334.06;5055465;28;20044;-76
2023/08/06 03:03:57;;;;;;;5.95;3.00;;;;;;;15.96;100.00;99333.69;5051288;28;20040;-76
2023/08/06 03:06:33;;;;;;;4.13;3.30;;;;;;;15.94;100.00;99326.78;5046694;28;20052;-76
2023/08/06 03:09:02;;;;;;;5.43;3.35;;;;;;;15.95;100.00;99326.63;5051500;28;20036;-77
2023/08/06 03:11:33;;;;;;;3.50;3.20;;;;;;;16.01;100.00;99317.25;5050470;28;20044;-76
2023/08/06 03:14:07;;;;;;;7.82;3.72;;;;;;;15.96;100.00;99306.97;5068431;28;20040;-76
2023/08/06 03:16:37;;;;;;;5.38;3.50;;;;;;;16.02;100.00;99318.97;5061066;28;20543;-77
2023/08/06 03:19:05;;;;;;;5.93;3.10;;;;;;;15.95;100.00;99315.13;5052895;28;20515;-76
2023/08/06 03:21:34;;;;;;;3.92;3.22;;;;;;;15.93;100.00;99306.38;5045350;28;20044;-77
2023/08/06 03:24:05;;;;;;;4.78;3.38;;;;;;;15.95;100.00;99301.75;5036362;28;20123;-77
2023/08/06 03:26:35;;;;;;;5.70;2.80;;;;;;;16.00;100.00;99294.22;5045779;28;20049;-79
2023/08/06 03:29:07;;;;;;;3.28;2.97;;;;;;;16.06;100.00;99296.34;5066964;28;20045;-77
2023/08/06 03:31:37;;;;;;;4.28;3.42;;;;;;;15.98;100.00;99296.16;5067286;28;20048;-76
2023/08/06 03:34:06;;;;;;;6.60;2.92;;;;;;;16.02;100.00;99303.78;5057056;28;20036;-76
2023/08/06 03:36:35;;;;;;;5.65;2.90;;;;;;;16.09;100.00;99296.06;5031174;28;20032;-76
2023/08/06 03:39:04;;;;;;;4.45;3.08;;;;;;;16.11;100.00;99296.78;5053463;28;20040;-76
2023/08/06 03:41:34;;;;;;;4.85;3.30;;;;;;;16.10;100.00;99292.41;5050845;28;20049;-76
2023/08/06 03:44:03;;;;;;;5.50;3.20;;;;;;;16.13;100.00;99279.66;5053107;28;20049;-76
2023/08/06 03:46:34;;;;;;;4.15;2.80;;;;;;;16.05;100.00;99290.19;5073165;28;20557;-77
2023/08/06 03:49:05;;;;;;;4.75;3.17;;;;;;;16.05;100.00;99279.50;5059674;28;20108;-77
2023/08/06 03:51:34;;;;;;;3.53;2.65;;;;;;;15.99;100.00;99282.69;5085717;28;20047;-77
2023/08/06 03:54:03;;;;;;;4.90;3.20;;;;;;;15.93;100.00;99288.53;5077893;28;20072;-77
2023/08/06 03:56:31;;;;;;;4.80;3.08;;;;;;;15.90;100.00;99282.66;5036631;28;20035;-77
2023/08/06 03:59:01;;;;;;;7.90;4.22;;;;;;;15.90;100.00;99271.97;5043891;28;20066;-75
2023/08/06 04:01:30;;;;;;;5.37;3.23;;;;;;;15.93;100.00;99269.00;5056570;28;20140;-76
2023/08/06 04:04:00;;;;;;;5.37;3.00;;;;;;;15.95;100.00;99273.25;5051276;28;20036;-77
2023/08/06 04:06:28;;;;;;;4.47;3.22;;;;;;;15.85;100.00;99269.69;5051027;28;20124;-78
2023/08/06 04:08:57;;;;;;;4.82;2.97;;;;;;;15.86;100.00;99278.53;5074580;28;20036;-77
2023/08/06 04:11:25;;;;;;;6.35;3.08;;;;;;;15.86;100.00;99271.38;5065386;28;20029;-77
2023/08/06 04:13:54;;;;;;;4.65;2.85;;;;;;;15.84;100.00;99275.16;5071485;28;20029;-77
2023/08/06 04:16:26;;;;;;;5.40;2.83;;;;;;;15.83;100.00;99270.78;5052941;28;20061;-78
2023/08/06 04:18:56;;;;;;;2.92;2.35;;;;;;;15.88;100.00;99263.25;5068023;28;20108;-77
2023/08/06 04:21:25;;;;;;;5.15;2.42;;;;;;;15.87;100.00;99264.22;5071889;28;20040;-77
2023/08/06 04:23:53;;;;;;;3.45;2.67;;;;;;;15.78;100.00;99266.69;5074427;28;20045;-77
2023/08/06 04:26:25;;;;;;;4.32;2.28;;;;;;;15.75;100.00;99269.63;5083685;28;20037;-78
2023/08/06 04:28:53;;;;;;;;;;;;;;;15.69;100.00;99255.97;5057172;28;20047;-79
2023/08/06 04:31:23;;;;;;;3.92;1.95;;;;;;;15.79;100.00;99276.38;5073407;28;19935;-79
2023/08/06 04:33:51;;;;;;;4.45;2.50;;;;;;;15.71;100.00;99254.88;5089187;28;20020;-78
2023/08/06 04:36:19;;;;;;;4.38;1.98;;;;;;;15.87;100.00;99272.22;5072101;28;20221;-78
2023/08/06 04:38:49;;;;;;;4.22;2.50;;;;;;;15.94;100.00;99276.88;5061844;28;20044;-76
2023/08/06 04:41:17;;;;;;;4.50;3.08;;;;;;;15.93;100.00;99269.84;5033711;28;20073;-77
2023/08/06 04:43:48;;;;;;;3.13;2.25;;;;;;;16.04;100.00;99275.13;5071347;28;20158;-76
2023/08/06 04:46:17;;;;;;;3.72;2.28;;;;;;;15.99;100.00;99269.34;5044352;28;20112;-77
2023/08/06 04:48:47;;;;;;;4.95;2.28;;;;;;;15.95;100.00;99272.41;5055874;28;20495;-76
2023/08/06 04:51:15;;;;;;;2.95;2.15;;;;;;;16.00;100.00;99284.38;5063260;28;20310;-76
2023/08/06 04:53:43;;;;;;;4.80;2.50;;;;;;;16.01;100.00;99279.88;5037645;28;20409;-76
2023/08/06 04:56:16;;;;;;;3.10;1.85;;;;;;;16.07;100.00;99285.50;5063348;28;20040;-74
2023/08/06 04:58:44;;;;;;;3.13;2.45;;;;;;;16.01;100.00;99280.72;5045355;28;20045;-76
2023/08/06 05:01:12;;;;;;;4.10;2.03;;;;;;;16.09;100.00;99288.91;5065978;28;20055;-77
2023/08/06 05:03:42;;;;;;;4.80;2.10;;;;;;;16.00;100.00;99281.72;5047938;28;20041;-78
2023/08/06 05:06:11;;;;;;;3.88;2.10;;;;;;;15.92;100.00;99289.53;5050453;28;20078;-76
2023/08/06 05:08:39;;;;;;;4.72;2.10;;;;;;;15.81;100.00;99276.25;5061196;28;20552;-78
2023/08/06 05:11:07;;;;;;;3.72;1.98;;;;;;;15.79;100.00;99280.88;5050949;28;20511;-76
2023/08/06 05:13:37;;;;;;;4.03;2.00;;;;;;;15.75;100.00;99282.97;5070230;28;20049;-79
2023/08/06 05:16:05;;;;;;;6.78;1.70;;;;;;;15.69;100.00;99280.00;5053855;28;20052;-76
2023/08/06 05:18:34;;;;;;;2.70;2.00;;;;;;;15.61;100.00;99280.63;5055057;28;20048;-76
2023/08/06 05:21:02;;;;;;;1.80;1.42;;;;;;;15.59;100.00;99281.72;5071415;28;20109;-78
2023/08/06 05:23:30;;;;;;;5.32;1.48;;;;;;;15.58;100.00;99280.91;5074398;28;20094;-77
2023/08/06 05:25:58;;;;;;;2.45;1.60;;;;;;;15.61;100.00;99279.78;5049026;28;20097;-76
2023/08/06 05:28:27;;;;;;;2.92;1.60;;;;;;;15.59;100.00;99284.41;5032209;28;20101;-76
2023/08/06 05:30:59;;;;;;;2.45;1.50;;;;;;;15.56;100.00;99285.53;5026116;28;20547;-76
2023/08/06 05:33:28;;;;;;;3.95;1.65;;;;;;;15.60;100.00;99270.94;5065159;28;20040;-77
2023/08/06 05:35:58;;;;;;;;;;;;;;;15.59;100.00;99282.59;5053406;28;20106;-76
2023/08/06 05:38:27;;;;;;;3.70;1.60;;;;;;;15.56;100.00;99279.34;5066009;28;19924;-76
2023/08/06 05:40:56;;;;;;;1.83;1.30;;;;;;;15.49;100.00;99272.78;5044000;28;20460;-77
2023/08/06 05:43:23;;;;;;;5.55;1.15;;;;;;;15.50;100.00;99279.81;5048205;28;20041;-76
2023/08/06 05:45:52;;;;;;;2.03;1.20;;;;;;;15.49;100.00;99280.81;5048894;28;20122;-78
2023/08/06 05:48:22;;;;;;;2.13;1.20;;;;;;;15.49;100.00;99278.13;5045958;28;20124;-79
2023/08/06 05:50:50;;;;;;;;;;;;;;;15.56;100.00;99290.03;5034679;28;20048;-78
2023/08/06 05:53:18;;;;;;;2.05;1.30;;;;;;;15.52;100.00;99283.22;5055396;28;19921;-78
2023/08/06 05:55:49;;;;;;;3.42;1.20;;;;;;;15.44;100.00;99273.19;5066112;28;20143;-78
2023/08/06 05:58:17;;;;;;;3.10;1.40;;;;;;;15.45;100.00;99282.88;5045233;28;20136;-79
2023/08/06 06:00:45;;;;;;;3.38;1.52;;;;;;;15.39;100.00;99278.94;5050826;28;20075;-76
2023/08/06 06:03:13;;;;;;;2.03;1.60;;;;;;;15.42;100.00;99286.66;5048543;28;20111;-76
2023/08/06 06:05:43;;;;;;;2.42;1.65;;;;;;;15.48;100.00;99285.28;5050080;28;20453;-77
2023/08/06 06:08:12;;;;;;;2.67;1.75;;;;;;;15.54;100.00;99283.94;5069735;28;20045;-78
2023/08/06 06:10:40;;;;;;;4.35;2.03;;;;;;;15.49;100.00;99268.31;5033123;28;20617;-77
2023/08/06 06:13:08;;;;;;;4.05;1.70;;;;;;;15.57;100.00;99283.72;5049081;28;20051;-81
2023/08/06 06:15:39;;;;;;;2.53;1.70;;;;;;;15.48;100.00;99287.13;5064534;28;20052;-78
2023/08/06 06:18:07;;;;;;;5.32;1.60;;;;;;;15.35;100.00;99287.31;5042643;28;20049;-78
2023/08/06 06:20:35;;;;;;;4.15;1.52;;;;;;;15.46;100.00;99289.91;5034982;28;20041;-78
2023/08/06 06:23:04;;;;;;;2.80;1.50;;;;;;;15.55;100.00;99289.19;5064500;28;20053;-78
2023/08/06 06:25:35;;;;;;;2.60;1.60;;;;;;;15.69;100.00;99291.50;5065973;28;20055;-78
2023/08/06 06:28:03;;;;;;;1.73;1.27;;;;;;;15.77;100.00;99283.69;5042692;28;20059;-79
2023/08/06 06:30:30;;;;;;;3.00;1.02;;;;;;;15.84;100.00;99292.03;5047643;28;20044;-79
2023/08/06 06:32:58;;;;;;;2.13;1.00;;;;;;;15.86;100.00;99287.41;5036538;28;20080;-78
2023/08/06 06:35:26;;;;;;;1.40;0.80;;;;;;;15.90;100.00;99288.00;5068627;28;20044;-77
2023/08/06 06:37:55;;;;;;;1.80;0.60;;;;;;;15.88;100.00;99279.25;5052194;28;20033;-78
2023/08/06 06:40:24;;;;;;;2.25;0.80;;;;;;;15.90;100.00;99282.66;5032097;28;20060;-78
2023/08/06 06:42:54;;;;;;;2.17;0.60;;;;;;;15.92;100.00;99288.69;5066063;28;20041;-77
2023/08/06 06:45:24;;;;;;;1.20;0.57;;;;;;;15.88;100.00;99285.44;5038082;28;20056;-77
2023/08/06 06:47:52;;;;;;;1.25;0.85;;;;;;;15.87;100.00;99282.91;5047183;28;20037;-77
2023/08/06 06:50:22;;;;;;;1.27;0.60;;;;;;;15.79;100.00;99288.88;5034039;28;20131;-77
2023/08/06 06:52:54;;;;;;;2.55;0.82;;;;;;;15.73;100.00;99292.09;5047193;28;20118;-78
2023/08/06 06:55:21;;;;;;;1.58;0.85;;;;;;;15.68;100.00;99291.63;5028270;28;20049;-78
2023/08/06 06:57:51;;;;;;;1.92;0.77;;;;;;;15.62;100.00;99287.66;5027182;28;20049;-78
2023/08/06 07:00:19;;;;;;;2.33;1.20;;;;;;;15.59;100.00;99281.72;5049306;28;20063;-77
2023/08/06 07:02:47;;;;;;;1.25;0.85;;;;;;;15.54;100.00;99271.44;5030731;28;20486;-77
2023/08/06 07:05:17;;;;;;;6.03;1.00;;;;;;;15.44;100.00;99282.03;5035394;28;20075;-78
2023/08/06 07:07:45;;;;;;;1.75;1.02;;;;;;;15.35;100.00;99272.16;5043326;28;20094;-77
2023/08/06 07:10:13;;;;;;;1.35;0.73;;;;;;;15.32;100.00;99275.06;5027316;28;20219;-78
2023/08/06 07:12:41;;;;;;;1.77;0.85;;;;;;;15.28;100.00;99280.78;5039644;28;20037;-77
2023/08/06 07:15:11;;;;;;;1.65;0.90;;;;;;;15.27;100.00;99271.09;5033575;28;20041;-76
2023/08/06 07:17:39;;;;;;;;;;;;;;;15.29;100.00;99282.47;5059425;28;20094;-78
2023/08/06 07:20:11;;;;;;;2.13;1.15;;;;;;;15.27;100.00;99276.41;5028153;28;20388;-78
2023/08/06 07:22:41;;;;;;;1.75;0.50;;;;;;;15.33;100.00;99281.25;5055138;28;20050;-76
2023/08/06 07:25:09;;;;;;;1.65;0.80;;;;;;;15.22;100.00;99274.16;5033913;28;20057;-77
2023/08/06 07:27:37;;;;;;;1.02;0.65;;;;;;;15.23;100.00;99275.84;5034472;28;20049;-77
2023/08/06 07:30:07;;;;;;;2.38;0.90;;;;;;;15.27;100.00;99287.09;5039254;28;20060;-77
2023/08/06 07:32:36;;;;;;;3.70;1.02;;;;;;;15.25;100.00;99279.25;5050943;28;20053;-77
2023/08/06 07:35:05;;;;;;;4.37;1.70;;;;;;;15.25;100.00;99284.56;5016049;28;20053;-78
2023/08/06 07:37:33;;;;;;;3.70;1.20;;;;;;;15.17;100.00;99283.50;5017026;28;20041;-78
2023/08/06 07:40:02;;;;;;;1.58;0.70;;;;;;;15.07;100.00;99294.09;5027717;28;20059;-79
2023/08/06 07:42:30;;;;;;;1.60;0.63;;;;;;;15.01;100.00;99287.44;5014289;28;20037;-77
2023/08/06 07:45:00;;;;;;;1.23;0.50;;;;;;;15.03;100.00;99282.00;5049955;28;20041;-77
2023/08/06 07:47:28;;;;;;;2.55;0.50;;;;;;;15.14;100.00;99289.09;5034356;28;20792;-78
2023/08/06 07:50:01;;;;;;;1.73;0.50;;;;;;;15.25;100.00;99276.56;5033196;28;20045;-77
2023/08/06 07:52:29;;;;;;;2.50;0.80;;;;;;;15.36;100.00;99270.34;5051661;28;20408;-77
2023/08/06 07:54:57;;;;;;;1.70;0.60;;;;;;;15.41;100.00;99271.66;5017095;28;20045;-77
2023/08/06 07:57:24;;;;;;;1.00;0.50;;;;;;;15.43;100.00;99272.34;5032263;28;20045;-78
2023/08/06 07:59:53;;;;;;;1.83;0.80;;;;;;;15.41;100.00;99278.81;5048456;28;20037;-78
2023/08/06 08:02:23;;;;;;;1.08;0.57;;;;;;;15.27;100.00;99277.28;5036598;28;20045;-78
2023/08/06 08:04:51;;;;;;;1.45;0.60;;;;;;;15.34;100.00;99273.13;5046804;28;20053;-78
2023/08/06 08:07:20;;;;;;;1.17;0.85;;;;;;;15.46;100.00;99276.56;5031189;28;22869;-77
2023/08/06 08:09:49;;;;;;;1.70;0.73;;;;;;;15.44;100.00;99263.34;5013009;28;20040;-79
2023/08/06 08:12:17;;;;;;;4.10;0.60;;;;;;;15.50;100.00;99267.34;5030843;28;20047;-76
2023/08/06 08:14:45;;;;;;;2.40;0.70;;;;;;;15.69;100.00;99271.97;5020811;28;20021;-80
2023/08/06 08:17:14;;;;;;;1.35;0.60;;;;;;;15.75;100.00;99272.28;5032924;28;20049;-76
2023/08/06 08:19:42;;;;;;;0.82;0.57;;;;;;;15.79;100.00;99271.06;5021865;28;20041;-76
2023/08/06 08:22:11;;;;;;;3.80;0.70;;;;;;;15.87;100.00;99262.41;5030930;28;20044;-76
2023/08/06 08:24:40;;;;;;;1.02;0.65;;;;;;;15.98;100.00;99269.47;5033983;28;20053;-78
2023/08/06 08:27:08;;;;;;;0.85;0.55;;;;;;;16.08;100.00;99265.00;5017357;28;20044;-76
2023/08/06 08:29:36;;;;;;;1.55;0.60;;;;;;;16.18;100.00;99260.56;5043388;28;20046;-77
2023/08/06 08:32:04;;;;;;;1.23;0.77;;;;;;;16.37;100.00;99262.47;5053825;28;20037;-76
2023/08/06 08:34:33;;;;;;;1.95;0.77;;;;;;;16.45;100.00;99268.78;5038073;28;20132;-75
2023/08/06 08:37:06;;;;;;;1.40;0.77;;;;;;;16.43;100.00;99254.72;5026892;28;20060;-78
2023/08/06 08:39:36;;;;;;;1.17;0.60;;;;;;;16.56;100.00;99259.81;5053332;28;20092;-78
2023/08/06 08:42:06;;;;;;;;;;;;;;;16.60;100.00;99263.91;5061867;28;20064;-76
2023/08/06 08:44:39;;;;;;;1.30;0.68;;;;;;;16.53;100.00;99253.91;5041957;28;19921;-75
2023/08/06 08:47:09;;;;;;;1.13;1.00;;;;;;;16.40;100.00;99233.63;5036571;28;20053;-77
2023/08/06 08:49:38;;;;;;;0.60;0.60;;;;;;;16.49;100.00;99248.84;5031152;28;20040;-77
2023/08/06 08:52:07;;;;;;;1.98;0.68;;;;;;;16.59;100.00;99254.19;5024272;28;20049;-76
2023/08/06 08:54:36;;;;;;;1.45;0.70;;;;;;;16.65;100.00;99253.69;5061629;28;20055;-76
2023/08/06 08:57:06;;;;;;;2.03;0.98;;;;;;;16.86;100.00;99250.03;5034084;28;20440;-77
2023/08/06 08:59:34;;;;;;;1.10;0.60;;;;;;;17.11;100.00;99241.47;5022656;28;20048;-77
2023/08/06 09:02:06;;;;;;;1.75;0.40;;;;;;;17.29;100.00;99253.16;5029018;28;20049;-76
2023/08/06 09:04:36;;;;;;;0.73;0.50;;;;;;;17.29;100.00;99252.31;5033840;28;20421;-76
2023/08/06 09:07:06;;;;;;;0.50;0.40;;;;;;;17.31;100.00;99232.47;5029818;28;20037;-76
2023/08/06 09:09:37;;;;;;;1.00;0.90;;;;;;;17.59;100.00;99248.59;5023562;28;20108;-77
2023/08/06 09:12:14;;;;;;;2.00;0.90;;;;;;;17.70;100.00;99251.13;5030194;28;20041;-76
2023/08/06 09:14:42;;;;;;;0.98;0.60;;;;;;;17.49;100.00;99235.22;5037464;28;20044;-76
2023/08/06 09:17:11;;;;;;;1.45;0.68;;;;;;;17.71;100.00;99255.50;5032105;28;20041;-76
2023/08/06 09:19:48;;;;;;;0.80;0.50;;;;;;;17.94;100.00;99258.69;5019482;28;20040;-75
2023/08/06 09:22:16;;;;;;;0.95;0.57;;;;;;;18.01;100.00;99235.66;5027592;28;20048;-75
2023/08/06 09:24:44;;;;;;;0.63;0.50;;;;;;;18.07;100.00;99253.84;5014775;28;20033;-76
2023/08/06 09:27:15;;;;;;;1.52;0.50;;;;;;;17.98;100.00;99244.84;5029827;28;20041;-76
2023/08/06 09:29:45;;;;;;;0.45;0.22;;;;;;;17.52;100.00;99259.03;5023668;28;20078;-76
2023/08/06 09:32:14;;;;;;;0.68;0.40;;;;;;;17.15;100.00;99249.09;5029428;28;20520;-77
2023/08/06 09:34:43;;;;;;;0.55;0.30;;;;;;;16.93;100.00;99241.34;5032099;28;20422;-75
2023/08/06 09:37:15;;;;;;;2.72;0.40;;;;;;;16.75;100.00;99249.19;5014579;28;20049;-75
2023/08/06 09:39:45;;;;;;;2.05;1.50;;;;;;;16.52;100.00;99237.03;5041403;28;20139;-78
2023/08/06 09:42:16;;;;;;;0.90;0.50;;;;;;;16.38;100.00;99235.56;5045899;28;20059;-77
2023/08/06 09:44:44;;;;;;;;;;;;;;;16.42;100.00;99238.81;5022093;28;20128;-77
2023/08/06 09:47:14;;;;;;;0.65;0.40;;;;;;;16.52;100.00;99236.19;5015106;28;19928;-75
2023/08/06 09:49:45;;;;;;;0.50;0.35;;;;;;;16.82;100.00;99236.97;5027351;28;20115;-75
2023/08/06 09:52:15;;;;;;;0.55;0.30;;;;;;;17.04;100.00;99237.66;5028168;28;20650;-76
2023/08/06 09:54:45;;;;;;;1.05;0.60;;;;;;;17.17;100.00;99236.38;5029323;28;20816;-75
2023/08/06 09:57:15;;;;;;;;;;;;;;;17.58;100.00;99246.91;5029425;28;20444;-78
2023/08/06 09:59:47;;;;;;;;;;;;;;;17.94;100.00;99245.28;5078537;22;19925;-83
2023/08/06 10:02:15;;;;;;;0.82;0.50;;;;;;;18.23;100.00;99248.69;5061218;28;19921;-84
2023/08/06 10:34:07;;;;;;;1.70;0.77;;;;;;;18.27;100.00;99183.06;5060079;28;20112;-84
2023/08/06 10:42:29;;;;;;;0.43;0.40;;;;;;;18.14;100.00;99236.16;5069788;28;20208;-88
2023/08/06 10:49:13;;;;;;;;;;;;;;;17.78;100.00;99248.59;5067648;28;20085;-86
2023/08/06 10:59:28;;;;;;;0.77;0.30;;;;;;;17.79;100.00;99260.97;5067501;28;20049;-85
2023/08/06 11:05:10;;;;;;;0.50;0.40;;;;;;;17.74;100.00;99257.91;5186312;27;21591;-83
2023/08/06 11:07:39;;;;;;;0.73;0.50;;;;;;;17.37;100.00;99236.38;5153336;27;20146;-83
2023/08/06 11:10:09;;;;;;;0.82;0.28;;;;;;;17.25;100.00;99250.91;5117948;27;20055;-82
2023/08/06 11:12:39;;;;;;;1.35;0.50;;;;;;;17.14;100.00;99254.56;5140418;27;20051;-80
2023/08/06 11:15:09;;;;;;;0.60;0.50;;;;;;;17.14;100.00;99244.72;5122811;27;20046;-81
2023/08/06 11:17:41;;;;;;;0.80;0.50;;;;;;;17.30;100.00;99243.31;5138602;27;20549;-82
2023/08/06 11:20:11;;;;;;;1.70;1.10;;;;;;;17.53;100.00;99228.59;5139188;27;21661;-82
2023/08/06 11:22:41;;;;;;;0.65;0.50;;;;;;;17.78;100.00;99228.00;5141000;27;20050;-80
2023/08/06 11:25:10;;;;;;;1.30;0.65;;;;;;;17.89;100.00;99237.69;5119003;27;20132;-81
2023/08/06 11:27:40;;;;;;;1.08;0.50;;;;;;;18.23;100.00;99237.97;5136284;27;20047;-83
2023/08/06 11:30:11;;;;;;;0.90;0.40;;;;;;;18.34;100.00;99244.97;5140183;27;20039;-83
2023/08/06 11:32:47;;;;;;;0.63;0.40;;;;;;;18.09;100.00;99242.00;5140966;27;20046;-82
2023/08/06 11:35:17;;;;;;;2.13;0.30;;;;;;;18.16;100.00;99263.66;5152756;27;20071;-83
2023/08/06 11:37:47;;;;;;;1.65;0.25;;;;;;;17.78;100.00;99229.84;5122804;27;20046;-82
2023/08/06 11:40:16;;;;;;;1.30;0.35;;;;;;;17.69;100.00;99250.28;5145515;27;20737;-81
2023/08/06 11:42:47;;;;;;;0.50;0.50;;;;;;;17.64;100.00;99246.34;5143088;27;20126;-84
2023/08/06 11:45:16;;;;;;;;;;;;;;;17.86;100.00;99281.66;5146615;27;20039;-83
2023/08/06 11:47:53;;;;;;;0.60;0.45;;;;;;;17.64;100.00;99279.31;5146668;27;19923;-84
2023/08/06 11:50:27;;;;;;;1.52;0.60;;;;;;;17.35;100.00;99290.03;5140751;27;20050;-81
2023/08/06 11:52:58;;;;;;;2.45;0.60;;;;;;;16.69;100.00;99294.34;5141607;27;20112;-82
2023/08/06 11:55:29;;;;;;;1.60;0.68;;;;;;;16.34;100.00;99318.84;5158954;27;20449;-83
2023/08/06 11:57:57;;;;;;;0.47;0.40;;;;;;;15.68;100.00;99292.50;5145865;27;20051;-79
2023/08/06 12:00:26;;;;;;;1.33;0.60;;;;;;;15.55;100.00;99323.88;5141429;27;20142;-79
2023/08/06 12:02:55;;;;;;;1.15;0.30;;;;;;;15.05;100.00;99280.91;5128366;27;20093;-81
2023/08/06 12:05:24;;;;;;;1.95;0.40;;;;;;;15.22;100.00;99337.31;5156725;27;20039;-81
2023/08/06 12:07:57;;;;;;;0.85;0.40;;;;;;;14.69;100.00;99258.13;5154891;27;20051;-80
2023/08/06 12:10:27;;;;;;;0.50;0.20;;;;;;;15.16;100.00;99349.31;5146948;27;20051;-82
2023/08/06 12:12:56;;;;;;;1.58;0.38;;;;;;;15.04;100.00;99332.53;5144552;27;20055;-80
2023/08/06 12:15:25;;;;;;;0.88;0.40;;;;;;;14.99;100.00;99326.72;5128942;27;20035;-81
2023/08/06 12:17:53;;;;;;;0.55;0.38;;;;;;;15.18;100.00;99370.53;5114750;27;20522;-82
2023/08/06 12:20:22;;;;;;;0.47;0.40;;;;;;;15.17;100.00;99368.84;5124293;27;20050;-80
2023/08/06 12:22:54;;;;;;;0.57;0.40;;;;;;;15.03;100.00;99362.81;5125410;27;20053;-82
2023/08/06 12:25:24;;;;;;;;;;;;;;;15.20;100.00;99368.59;5119493;27;20043;-82
2023/08/06 12:27:52;;;;;;;0.73;0.50;;;;;;;15.31;100.00;99387.22;5133086;27;19927;-82